Time;durP1;ratioP1;P1;durP2;ratioP2;P2;SDS_P1;SDS_P2;PMS_P1;PMS_P2;Temp;Humidity;BMP_temperature;BMP_pressure;BME280_temperature;BME280_humidity;BME280_pressure;Samples;Min_cycle;Max_cycle;Signal;HPM_P1;HPM_P2
2024/02/05 00:01:05;;;;;;;0.55;0.40;;;8.10;1.00;;;;;;7367530;19;20064;-69
2024/02/05 00:03:36;;;;;;;1.65;0.50;;;8.10;1.00;;;;;;7361860;19;20069;-70
2024/02/05 00:06:07;;;;;;;0.50;0.40;;;8.00;1.00;;;;;;7363902;19;20520;-69
2024/02/05 00:08:39;;;;;;;0.65;0.43;;;8.00;1.00;;;;;;7367113;19;20016;-70
2024/02/05 00:11:09;;;;;;;1.10;0.57;;;8.00;1.00;;;;;;7366701;19;20038;-70
2024/02/05 00:13:40;;;;;;;0.60;0.38;;;8.00;1.00;;;;;;7367661;19;20467;-70
2024/02/05 00:16:10;;;;;;;0.52;0.32;;;8.00;1.00;;;;;;7364529;19;20047;-70
2024/02/05 00:18:41;;;;;;;0.63;0.50;;;7.80;1.00;;;;;;7367313;19;20033;-69
2024/02/05 00:21:11;;;;;;;1.73;0.45;;;7.90;1.00;;;;;;7366806;19;20011;-70
2024/02/05 00:23:44;;;;;;;0.50;0.40;;;7.80;1.00;;;;;;7368088;19;20602;-70
2024/02/05 00:26:14;;;;;;;1.95;0.57;;;7.80;1.00;;;;;;7364301;19;20018;-69
2024/02/05 00:28:44;;;;;;;0.93;0.32;;;7.80;1.00;;;;;;7367049;19;20010;-70
2024/02/05 00:31:14;;;;;;;1.95;0.57;;;7.80;1.00;;;;;;7365844;19;20044;-70
2024/02/05 00:33:45;;;;;;;0.47;0.43;;;7.70;1.00;;;;;;7367876;19;20053;-70
2024/02/05 00:36:16;;;;;;;0.63;0.50;;;7.70;1.00;;;;;;7364299;19;20015;-70
2024/02/05 00:38:48;;;;;;;0.28;0.20;;;7.70;1.00;;;;;;7367822;19;20018;-70
2024/02/05 00:41:18;;;;;;;1.90;0.45;;;7.70;1.00;;;;;;7365663;19;20009;-70
2024/02/05 00:43:48;;;;;;;1.02;0.52;;;7.70;1.00;;;;;;7368182;19;20479;-70
2024/02/05 00:46:29;;;;;;;0.40;0.35;;;7.60;1.00;;;;;;7361255;19;20025;-70
2024/02/05 00:48:59;;;;;;;0.85;0.43;;;7.60;1.00;;;;;;7364796;19;20468;-70
2024/02/05 00:51:30;;;;;;;1.38;0.65;;;7.60;1.00;;;;;;7365672;19;20021;-71
2024/02/05 00:54:03;;;;;;;0.80;0.45;;;7.60;1.00;;;;;;7366706;19;20136;-72
2024/02/05 00:56:33;;;;;;;0.75;0.50;;;7.70;1.00;;;;;;7369747;19;20074;-70
2024/02/05 00:59:04;;;;;;;0.60;0.50;;;7.70;1.00;;;;;;7374249;19;20015;-70
2024/02/05 01:01:35;;;;;;;1.02;0.70;;;7.70;1.00;;;;;;7372590;19;20018;-71
2024/02/05 01:04:06;;;;;;;0.60;0.50;;;7.70;1.00;;;;;;7374929;19;20014;-70
2024/02/05 01:06:36;;;;;;;1.67;0.65;;;7.70;1.00;;;;;;7372615;19;20047;-71
2024/02/05 01:09:09;;;;;;;1.13;0.70;;;7.70;1.00;;;;;;7374740;19;20021;-70
2024/02/05 01:11:40;;;;;;;2.10;0.50;;;7.80;1.00;;;;;;7373507;19;20031;-70
2024/02/05 01:14:10;;;;;;;1.35;0.50;;;7.80;1.00;;;;;;7374354;19;20018;-69
2024/02/05 01:16:40;;;;;;;0.60;0.52;;;7.70;1.00;;;;;;7371753;19;20267;-70
2024/02/05 01:19:10;;;;;;;0.98;0.60;;;7.70;1.00;;;;;;7374158;19;20034;-70
2024/02/05 01:21:40;;;;;;;1.92;0.70;;;7.70;1.00;;;;;;7372584;19;20043;-70
2024/02/05 01:24:13;;;;;;;1.58;0.93;;;7.70;1.00;;;;;;7373992;19;20010;-69
2024/02/05 01:26:43;;;;;;;1.95;0.80;;;7.70;1.00;;;;;;7373752;19;20089;-70
2024/02/05 01:29:13;;;;;;;1.17;0.60;;;7.60;1.00;;;;;;7374728;19;20499;-70
2024/02/05 01:31:45;;;;;;;1.52;0.68;;;7.60;1.00;;;;;;7373148;19;20025;-71
2024/02/05 01:34:15;;;;;;;1.70;0.77;;;7.60;1.00;;;;;;7375344;19;20087;-70
2024/02/05 01:36:45;;;;;;;2.00;0.60;;;7.70;1.00;;;;;;7372654;19;20044;-70
2024/02/05 01:39:18;;;;;;;1.40;0.80;;;7.60;1.00;;;;;;7373617;19;20027;-70
2024/02/05 01:41:48;;;;;;;2.47;0.80;;;7.60;1.00;;;;;;7373160;19;20476;-69
2024/02/05 01:44:18;;;;;;;4.97;0.90;;;7.60;1.00;;;;;;7373430;19;20014;-70
2024/02/05 01:46:48;;;;;;;1.25;0.70;;;7.60;1.00;;;;;;7370649;19;20090;-70
2024/02/05 01:49:18;;;;;;;0.88;0.60;;;7.60;1.00;;;;;;7372203;19;20112;-70
2024/02/05 01:51:52;;;;;;;2.25;0.90;;;7.50;1.00;;;;;;7371295;19;20527;-70
2024/02/05 01:54:26;;;;;;;0.85;0.70;;;7.50;1.00;;;;;;7373491;19;20019;-70
2024/02/05 01:56:57;;;;;;;2.33;0.90;;;7.40;1.00;;;;;;7369455;19;20471;-70
2024/02/05 01:59:27;;;;;;;1.30;0.98;;;7.40;1.00;;;;;;7372293;19;20021;-70
2024/02/05 02:01:58;;;;;;;2.40;0.80;;;7.40;1.00;;;;;;7370573;19;20032;-71
2024/02/05 02:04:28;;;;;;;2.25;0.90;;;7.40;1.00;;;;;;7370705;19;20022;-70
2024/02/05 02:06:58;;;;;;;1.33;0.90;;;7.50;1.00;;;;;;7368421;19;20042;-70
2024/02/05 02:09:32;;;;;;;1.13;0.80;;;7.50;1.00;;;;;;7371660;19;20036;-70
2024/02/05 02:12:03;;;;;;;1.25;0.88;;;7.50;1.00;;;;;;7370043;19;20018;-70
2024/02/05 02:14:33;;;;;;;2.03;0.65;;;7.50;1.00;;;;;;7369384;19;20370;-71
2024/02/05 02:17:03;;;;;;;1.60;0.80;;;7.50;1.00;;;;;;7371473;19;20032;-71
2024/02/05 02:19:42;;;;;;;1.75;0.73;;;7.60;1.00;;;;;;7370619;19;20010;-70
2024/02/05 02:22:29;;;;;;;4.03;0.70;;;7.60;1.00;;;;;;7370120;19;20014;-70
2024/02/05 02:25:02;;;;;;;2.30;0.70;;;7.60;1.00;;;;;;7367897;19;20018;-70
2024/02/05 02:27:32;;;;;;;2.20;0.73;;;7.70;1.00;;;;;;7372250;19;20081;-70
2024/02/05 02:30:03;;;;;;;1.92;0.65;;;7.70;1.00;;;;;;7371801;19;20129;-70
2024/02/05 02:32:39;;;;;;;2.13;0.60;;;7.70;1.00;;;;;;7368006;19;20620;-70
2024/02/05 02:35:14;;;;;;;2.65;0.70;;;7.70;1.00;;;;;;7369357;19;20506;-70
2024/02/05 02:37:49;;;;;;;4.00;0.70;;;7.80;1.00;;;;;;7370725;19;20043;-69
2024/02/05 02:40:23;;;;;;;3.08;0.50;;;7.80;1.00;;;;;;7369390;19;20058;-69
2024/02/05 02:43:02;;;;;;;2.38;0.68;;;7.80;1.00;;;;;;7370291;19;20028;-70
2024/02/05 02:45:33;;;;;;;1.58;0.60;;;7.90;1.00;;;;;;7365699;19;20015;-69
2024/02/05 02:48:03;;;;;;;1.25;0.50;;;7.90;1.00;;;;;;7369810;19;20021;-70
2024/02/05 02:50:34;;;;;;;1.50;0.70;;;7.90;1.00;;;;;;7369725;19;20018;-70
2024/02/05 02:53:04;;;;;;;2.28;0.63;;;7.90;1.00;;;;;;7368453;19;20452;-69
2024/02/05 02:55:36;;;;;;;1.27;0.50;;;7.90;1.00;;;;;;7365896;19;20097;-70
2024/02/05 02:58:06;;;;;;;1.48;0.50;;;7.90;1.00;;;;;;7367616;19;20875;-69
2024/02/05 03:00:37;;;;;;;1.20;0.40;;;7.90;1.00;;;;;;7367715;19;20467;-69
2024/02/05 03:03:07;;;;;;;1.80;0.70;;;8.00;1.00;;;;;;7366447;19;20523;-70
2024/02/05 03:05:37;;;;;;;0.35;0.28;;;8.00;1.00;;;;;;7362222;19;20651;-70
2024/02/05 03:08:09;;;;;;;1.10;0.40;;;8.00;1.00;;;;;;7367355;19;20010;-70
2024/02/05 03:10:41;;;;;;;0.77;0.40;;;8.10;1.00;;;;;;7367098;19;20041;-69
2024/02/05 03:13:12;;;;;;;1.33;0.45;;;8.10;1.00;;;;;;7366751;19;20014;-69
2024/02/05 03:15:46;;;;;;;;;;;8.10;1.00;;;;;;7367257;19;20250;-70
2024/02/05 03:18:16;;;;;;;1.25;0.32;;;8.10;1.00;;;;;;7367313;19;19914;-71
2024/02/05 03:20:46;;;;;;;0.88;0.57;;;8.10;1.00;;;;;;7368019;19;20503;-70
2024/02/05 03:23:16;;;;;;;0.85;0.40;;;8.10;1.00;;;;;;7365943;19;20007;-70
2024/02/05 03:25:50;;;;;;;1.58;0.70;;;8.10;1.00;;;;;;7362499;19;20018;-70
2024/02/05 03:28:23;;;;;;;0.52;0.38;;;8.10;1.00;;;;;;7367665;19;20015;-72
2024/02/05 03:30:54;;;;;;;0.80;0.30;;;8.00;1.00;;;;;;7368256;19;20082;-70
2024/02/05 03:33:24;;;;;;;1.13;0.50;;;8.10;1.00;;;;;;7367427;19;20015;-69
2024/02/05 03:35:54;;;;;;;1.17;0.57;;;8.00;1.00;;;;;;7364614;19;20097;-70
2024/02/05 03:38:24;;;;;;;0.52;0.30;;;8.10;1.00;;;;;;7369491;19;20513;-70
2024/02/05 03:40:56;;;;;;;0.70;0.40;;;8.10;1.00;;;;;;7367952;19;20036;-70
2024/02/05 03:43:27;;;;;;;0.65;0.43;;;8.00;1.00;;;;;;7366730;19;20041;-70
2024/02/05 03:45:57;;;;;;;0.60;0.40;;;8.00;1.00;;;;;;7366221;19;20014;-70
2024/02/05 03:48:27;;;;;;;0.45;0.40;;;8.00;1.00;;;;;;7368551;19;20027;-69
2024/02/05 03:50:57;;;;;;;2.08;0.60;;;8.00;1.00;;;;;;7366772;19;20475;-70
2024/02/05 03:53:27;;;;;;;0.80;0.57;;;8.00;1.00;;;;;;7366631;19;20019;-72
2024/02/05 03:56:00;;;;;;;0.75;0.45;;;8.00;1.00;;;;;;7364950;19;20531;-70
2024/02/05 03:58:30;;;;;;;1.70;0.60;;;8.00;1.00;;;;;;7368677;19;20011;-70
2024/02/05 04:01:00;;;;;;;1.13;0.50;;;8.00;1.00;;;;;;7361429;19;20021;-70
2024/02/05 04:03:30;;;;;;;0.90;0.50;;;8.00;1.00;;;;;;7367805;19;20010;-70
2024/02/05 04:06:00;;;;;;;1.65;0.40;;;8.00;1.00;;;;;;7364062;19;20506;-69
2024/02/05 04:08:30;;;;;;;0.73;0.30;;;7.90;1.00;;;;;;7368304;19;20031;-70
2024/02/05 04:11:03;;;;;;;1.50;0.80;;;8.00;1.00;;;;;;7366806;19;20022;-70
2024/02/05 04:13:33;;;;;;;1.17;0.40;;;8.00;1.00;;;;;;7364897;19;20148;-70
2024/02/05 04:16:03;;;;;;;1.98;0.50;;;8.00;1.00;;;;;;7363620;19;20467;-70
2024/02/05 04:18:33;;;;;;;1.27;0.30;;;8.00;1.00;;;;;;7367556;19;20014;-69
2024/02/05 04:21:03;;;;;;;2.25;0.63;;;8.00;1.00;;;;;;7365591;19;20236;-70
2024/02/05 04:23:34;;;;;;;0.47;0.40;;;8.00;1.00;;;;;;7365281;19;20032;-70
2024/02/05 04:26:16;;;;;;;0.35;0.30;;;8.00;1.00;;;;;;7362425;19;20036;-70
2024/02/05 04:28:47;;;;;;;1.55;0.43;;;8.00;1.00;;;;;;7366152;19;20090;-70
2024/02/05 04:31:18;;;;;;;1.08;0.30;;;8.00;1.00;;;;;;7366326;19;20039;-70
2024/02/05 04:33:49;;;;;;;0.50;0.30;;;8.00;1.00;;;;;;7373393;19;20082;-69
2024/02/05 04:36:19;;;;;;;0.63;0.30;;;8.00;1.00;;;;;;7370703;19;20002;-70
2024/02/05 04:38:49;;;;;;;1.85;0.68;;;8.00;1.00;;;;;;7372448;19;20098;-70
2024/02/05 04:41:21;;;;;;;0.52;0.40;;;8.10;1.00;;;;;;7371117;19;20010;-70
2024/02/05 04:43:51;;;;;;;0.95;0.45;;;8.10;1.00;;;;;;7372179;19;20094;-70
2024/02/05 04:46:21;;;;;;;1.33;0.43;;;8.10;1.00;;;;;;7368636;19;20013;-70
2024/02/05 04:48:51;;;;;;;1.02;0.38;;;8.10;1.00;;;;;;7372086;19;20352;-71
2024/02/05 04:51:21;;;;;;;0.93;0.30;;;8.20;1.00;;;;;;7371134;19;20010;-70
2024/02/05 04:53:51;;;;;;;2.40;0.43;;;8.10;1.00;;;;;;7372374;19;20503;-70
2024/02/05 04:56:24;;;;;;;1.20;0.38;;;8.10;1.00;;;;;;7369612;19;20033;-70
2024/02/05 04:58:54;;;;;;;1.27;0.40;;;8.10;1.00;;;;;;7374549;19;20018;-69
2024/02/05 05:01:24;;;;;;;0.30;0.20;;;8.20;1.00;;;;;;7374153;19;20010;-69
2024/02/05 05:03:54;;;;;;;0.47;0.20;;;8.20;1.00;;;;;;7372909;19;20094;-70
2024/02/05 05:06:24;;;;;;;0.40;0.30;;;8.20;1.00;;;;;;7369680;19;20006;-70
2024/02/05 05:08:54;;;;;;;1.65;0.43;;;8.20;1.00;;;;;;7372710;19;20011;-70
2024/02/05 05:11:27;;;;;;;0.95;0.35;;;8.20;1.00;;;;;;7369047;19;20337;-70
2024/02/05 05:13:57;;;;;;;1.50;0.40;;;8.20;1.00;;;;;;7372416;19;20101;-70
2024/02/05 05:16:30;;;;;;;0.85;0.45;;;8.30;1.00;;;;;;7370493;19;20030;-70
2024/02/05 05:19:01;;;;;;;1.83;0.45;;;8.20;1.00;;;;;;7371323;19;20445;-70
2024/02/05 05:21:32;;;;;;;0.50;0.30;;;8.30;1.00;;;;;;7369465;19;20011;-71
2024/02/05 05:24:02;;;;;;;0.25;0.25;;;8.30;1.00;;;;;;7369887;19;20014;-71
2024/02/05 05:26:35;;;;;;;0.47;0.20;;;8.30;1.00;;;;;;7369842;19;20011;-70
2024/02/05 05:29:05;;;;;;;0.70;0.30;;;8.40;1.00;;;;;;7370574;19;20089;-70
2024/02/05 05:31:35;;;;;;;0.68;0.30;;;8.40;1.00;;;;;;7370583;19;20027;-69
2024/02/05 05:34:06;;;;;;;0.68;0.30;;;8.40;1.00;;;;;;7371001;19;20188;-70
2024/02/05 05:36:37;;;;;;;1.15;0.20;;;8.40;1.00;;;;;;7369033;19;20014;-72
2024/02/05 05:39:07;;;;;;;0.73;0.20;;;8.40;1.00;;;;;;7370035;19;20010;-71
2024/02/05 05:41:40;;;;;;;0.40;0.30;;;8.40;1.00;;;;;;7369651;19;20052;-71
2024/02/05 05:44:10;;;;;;;0.50;0.25;;;8.40;1.00;;;;;;7371408;19;20087;-70
2024/02/05 05:46:40;;;;;;;1.85;0.32;;;8.40;1.00;;;;;;7369475;19;20013;-71
2024/02/05 05:49:10;;;;;;;0.80;0.50;;;8.40;1.00;;;;;;7373138;19;20022;-71
2024/02/05 05:51:40;;;;;;;0.73;0.30;;;8.40;1.00;;;;;;7371027;19;20014;-70
2024/02/05 05:54:11;;;;;;;1.65;0.40;;;8.40;1.00;;;;;;7370606;19;20020;-71
2024/02/05 05:56:43;;;;;;;0.80;0.40;;;8.40;1.00;;;;;;7370037;19;20003;-71
2024/02/05 05:59:14;;;;;;;3.58;0.52;;;8.40;1.00;;;;;;7372355;19;20014;-70
2024/02/05 06:01:44;;;;;;;0.60;0.40;;;8.50;1.00;;;;;;7371561;19;20033;-70
2024/02/05 06:04:15;;;;;;;0.68;0.50;;;8.50;1.00;;;;;;7366165;19;20011;-70
2024/02/05 06:06:45;;;;;;;2.30;0.40;;;8.50;1.00;;;;;;7370341;19;20011;-70
2024/02/05 06:09:18;;;;;;;1.02;0.40;;;8.50;1.00;;;;;;7369504;19;20502;-71
2024/02/05 06:11:51;;;;;;;0.65;0.40;;;8.50;1.00;;;;;;7371444;19;20361;-70
2024/02/05 06:14:21;;;;;;;0.40;0.22;;;8.50;1.00;;;;;;7366757;19;20084;-71
2024/02/05 06:16:51;;;;;;;1.10;0.40;;;8.50;1.00;;;;;;7369470;19;20511;-71
2024/02/05 06:19:21;;;;;;;1.17;0.50;;;8.50;1.00;;;;;;7371190;19;20014;-69
2024/02/05 06:21:52;;;;;;;1.20;0.60;;;8.50;1.00;;;;;;7370508;19;20010;-69
2024/02/05 06:24:22;;;;;;;0.80;0.65;;;8.50;1.00;;;;;;7370348;19;20010;-70
2024/02/05 06:26:54;;;;;;;1.48;0.50;;;8.50;1.00;;;;;;7369580;19;20832;-69
2024/02/05 06:29:24;;;;;;;1.25;0.60;;;8.50;1.00;;;;;;7369194;19;20485;-71
2024/02/05 06:31:54;;;;;;;1.00;0.50;;;8.50;1.00;;;;;;7369210;19;20010;-69
2024/02/05 06:34:25;;;;;;;1.45;0.77;;;8.50;1.00;;;;;;7367664;19;20011;-71
2024/02/05 06:36:55;;;;;;;2.78;1.08;;;8.50;1.00;;;;;;7369251;19;20648;-71
2024/02/05 06:39:25;;;;;;;1.25;0.50;;;8.50;1.00;;;;;;7369012;19;20783;-71
2024/02/05 06:41:58;;;;;;;2.65;0.60;;;8.50;1.00;;;;;;7369927;19;20011;-70
2024/02/05 06:44:28;;;;;;;1.08;0.60;;;8.60;1.00;;;;;;7369134;19;20036;-70
2024/02/05 06:46:58;;;;;;;3.47;1.05;;;8.50;1.00;;;;;;7370682;19;20017;-69
2024/02/05 06:49:28;;;;;;;4.22;1.00;;;8.60;1.00;;;;;;7369062;19;20020;-69
2024/02/05 06:51:58;;;;;;;2.50;0.80;;;8.60;1.00;;;;;;7368772;19;20003;-71
2024/02/05 06:54:28;;;;;;;3.72;0.80;;;8.60;1.00;;;;;;7367085;19;20025;-70
2024/02/05 06:57:00;;;;;;;3.15;0.60;;;8.50;1.00;;;;;;7369899;19;20017;-72
2024/02/05 06:59:30;;;;;;;2.45;0.80;;;8.60;1.00;;;;;;7369387;19;20017;-70
2024/02/05 07:02:00;;;;;;;1.55;0.70;;;8.60;1.00;;;;;;7369693;19;20018;-70
2024/02/05 07:04:31;;;;;;;5.28;0.70;;;8.60;1.00;;;;;;7368416;19;20003;-69
2024/02/05 07:07:01;;;;;;;1.63;0.65;;;8.60;1.00;;;;;;7370207;19;20017;-70
2024/02/05 07:09:31;;;;;;;2.03;0.90;;;8.60;1.00;;;;;;7369472;19;20134;-70
2024/02/05 07:12:03;;;;;;;2.80;1.13;;;8.60;1.00;;;;;;7367454;19;21012;-71
2024/02/05 07:14:33;;;;;;;1.13;0.60;;;8.60;1.00;;;;;;7367451;19;20041;-70
2024/02/05 07:17:03;;;;;;;5.00;0.80;;;8.60;1.00;;;;;;7367520;19;20036;-70
2024/02/05 07:19:34;;;;;;;2.40;1.00;;;8.60;1.00;;;;;;7365776;19;20011;-70
2024/02/05 07:22:05;;;;;;;4.68;1.33;;;8.60;1.00;;;;;;7364740;19;20019;-70
2024/02/05 07:24:35;;;;;;;3.72;1.38;;;8.60;1.00;;;;;;7364435;19;20018;-69
2024/02/05 07:27:07;;;;;;;11.82;1.17;;;8.70;1.00;;;;;;7365654;19;20018;-70
2024/02/05 07:29:39;;;;;;;5.70;1.70;;;8.70;1.00;;;;;;7366563;19;20036;-70
2024/02/05 07:32:09;;;;;;;6.65;2.00;;;8.70;1.00;;;;;;7367419;19;20108;-70
2024/02/05 07:34:40;;;;;;;5.05;1.25;;;8.70;1.00;;;;;;7367773;19;20098;-70
2024/02/05 07:37:10;;;;;;;4.22;1.00;;;8.70;1.00;;;;;;7366766;19;20018;-71
2024/02/05 07:39:41;;;;;;;2.00;1.23;;;8.70;1.00;;;;;;7366933;19;20844;-70
2024/02/05 07:42:14;;;;;;;5.25;1.15;;;8.80;1.00;;;;;;7365525;19;20014;-71
2024/02/05 07:44:44;;;;;;;3.30;0.80;;;8.80;1.00;;;;;;7365342;19;20475;-69
2024/02/05 07:47:15;;;;;;;2.00;0.65;;;8.80;1.00;;;;;;7366545;19;20047;-69
2024/02/05 07:49:45;;;;;;;0.90;0.60;;;8.80;1.00;;;;;;7367630;19;20011;-69
2024/02/05 07:52:17;;;;;;;2.20;1.00;;;8.80;1.00;;;;;;7366501;19;20037;-70
2024/02/05 07:54:47;;;;;;;3.22;0.60;;;8.70;1.00;;;;;;7365240;19;20097;-69
2024/02/05 07:57:20;;;;;;;2.45;0.63;;;8.70;1.00;;;;;;7367521;19;20113;-70
2024/02/05 07:59:50;;;;;;;1.30;0.52;;;8.70;1.00;;;;;;7368291;19;20128;-69
2024/02/05 08:02:20;;;;;;;2.08;0.70;;;8.80;1.00;;;;;;7364833;19;20106;-70
2024/02/05 08:04:51;;;;;;;5.53;1.00;;;8.80;1.00;;;;;;7362474;19;20018;-70
2024/02/05 08:07:21;;;;;;;4.55;1.00;;;8.80;1.00;;;;;;7366556;19;20029;-69
2024/02/05 08:09:51;;;;;;;5.43;1.27;;;8.80;1.00;;;;;;7367283;19;20478;-69
2024/02/05 08:12:25;;;;;;;2.67;0.98;;;8.80;1.00;;;;;;7364060;19;20010;-69
2024/02/05 08:14:55;;;;;;;1.88;0.85;;;8.80;1.00;;;;;;7364589;19;20018;-69
2024/02/05 08:17:26;;;;;;;2.90;1.25;;;8.80;1.00;;;;;;7366113;19;20025;-68
2024/02/05 08:19:56;;;;;;;2.38;1.13;;;8.80;1.00;;;;;;7366537;19;20386;-69
2024/02/05 08:22:28;;;;;;;1.85;0.75;;;8.80;1.00;;;;;;7363758;19;20066;-69
2024/02/05 08:24:58;;;;;;;1.42;0.80;;;8.80;1.00;;;;;;7364551;19;24018;-70
2024/02/05 08:27:31;;;;;;;1.13;0.60;;;8.80;1.00;;;;;;7365264;19;29449;-70
2024/02/05 08:30:01;;;;;;;3.15;0.60;;;8.80;1.00;;;;;;7365639;19;20015;-69
2024/02/05 08:32:31;;;;;;;4.43;1.08;;;8.80;1.00;;;;;;7362724;19;20068;-71
2024/02/05 08:35:01;;;;;;;1.73;0.50;;;8.90;1.00;;;;;;7364583;19;20006;-71
2024/02/05 08:37:31;;;;;;;1.88;0.80;;;8.80;1.00;;;;;;7364571;19;20473;-70
2024/02/05 08:40:02;;;;;;;0.50;0.40;;;8.90;1.00;;;;;;7366560;19;20007;-70
2024/02/05 08:42:35;;;;;;;2.22;1.30;;;8.90;1.00;;;;;;7365718;19;20512;-70
2024/02/05 08:45:05;;;;;;;1.85;0.50;;;9.00;1.00;;;;;;7363323;19;20011;-70
2024/02/05 08:47:35;;;;;;;1.67;0.77;;;9.00;1.00;;;;;;7365966;19;20098;-70
2024/02/05 08:50:06;;;;;;;2.35;0.60;;;8.90;1.00;;;;;;7364849;19;20002;-71
2024/02/05 08:52:36;;;;;;;5.30;1.00;;;9.10;1.00;;;;;;7363966;19;20423;-70
2024/02/05 08:55:08;;;;;;;3.70;1.00;;;9.10;1.00;;;;;;7363210;19;20857;-69
2024/02/05 08:57:41;;;;;;;2.05;0.65;;;9.20;1.00;;;;;;7366576;19;20014;-71
2024/02/05 09:00:19;;;;;;;1.45;0.80;;;9.20;1.00;;;;;;7364986;19;20015;-71
2024/02/05 09:02:50;;;;;;;2.77;0.70;;;9.30;1.00;;;;;;7363127;19;20014;-69
2024/02/05 09:05:20;;;;;;;4.15;0.80;;;9.40;1.00;;;;;;7361778;19;20014;-70
2024/02/05 09:08:09;;;;;;;3.35;0.70;;;9.50;1.00;;;;;;7363606;19;20050;-69
2024/02/05 09:10:39;;;;;;;2.35;0.93;;;9.50;1.00;;;;;;7366861;19;20036;-71
2024/02/05 09:13:12;;;;;;;3.58;1.02;;;9.50;1.00;;;;;;7364788;19;20661;-71
2024/02/05 09:15:42;;;;;;;4.88;1.27;;;9.60;1.00;;;;;;7364717;19;20003;-69
2024/02/05 09:18:13;;;;;;;6.95;3.28;;;9.60;1.00;;;;;;7373419;19;20438;-69
2024/02/05 09:20:45;;;;;;;3.90;1.20;;;9.80;1.00;;;;;;7372827;19;20006;-70
2024/02/05 09:23:16;;;;;;;4.43;1.40;;;9.80;1.00;;;;;;7367589;19;20010;-70
2024/02/05 09:25:46;;;;;;;2.92;0.90;;;9.90;1.00;;;;;;7368270;19;20814;-70
2024/02/05 09:28:19;;;;;;;6.07;1.20;;;10.00;1.00;;;;;;7371407;19;20014;-70
2024/02/05 09:30:49;;;;;;;7.88;1.55;;;10.00;1.00;;;;;;7373833;19;20035;-71
2024/02/05 09:33:35;;;;;;;2.47;1.00;;;9.90;1.00;;;;;;7370169;19;20026;-70
2024/02/05 09:36:05;;;;;;;3.13;1.00;;;9.90;1.00;;;;;;7369732;19;20492;-71
2024/02/05 09:38:35;;;;;;;3.08;1.40;;;10.10;1.00;;;;;;7369274;19;20023;-72
2024/02/05 09:41:07;;;;;;;5.28;1.10;;;10.60;1.00;;;;;;7371461;19;20559;-71
2024/02/05 09:43:42;;;;;;;4.82;1.13;;;10.80;1.00;;;;;;7367784;19;20021;-70
2024/02/05 09:46:17;;;;;;;3.50;1.23;;;10.80;1.00;;;;;;7369097;19;20003;-70
2024/02/05 09:48:48;;;;;;;1.67;0.70;;;11.20;1.00;;;;;;7367864;19;20040;-70
2024/02/05 09:51:20;;;;;;;3.00;1.27;;;11.20;1.00;;;;;;7367898;19;20494;-70
2024/02/05 09:53:50;;;;;;;4.35;1.35;;;11.30;1.00;;;;;;7368225;19;20010;-71
2024/02/05 09:56:27;;;;;;;2.38;0.68;;;11.30;1.00;;;;;;7370347;19;20394;-71
2024/02/05 09:59:00;;;;;;;3.65;1.27;;;11.20;1.00;;;;;;7369715;19;20010;-71
2024/02/05 10:01:31;;;;;;;3.38;1.17;;;10.90;1.00;;;;;;7369358;19;20014;-70
2024/02/05 10:04:03;;;;;;;1.95;0.80;;;11.40;1.00;;;;;;7369568;19;20022;-70
2024/02/05 10:06:34;;;;;;;4.38;1.00;;;11.50;1.00;;;;;;7370498;19;20014;-69
2024/02/05 10:09:06;;;;;;;3.25;1.10;;;11.60;1.00;;;;;;7369845;19;20570;-70
2024/02/05 10:11:40;;;;;;;3.08;1.00;;;11.50;1.00;;;;;;7368172;19;20102;-71
2024/02/05 10:14:13;;;;;;;2.20;0.93;;;11.70;1.00;;;;;;7369329;19;20011;-70
2024/02/05 10:16:45;;;;;;;3.33;0.85;;;11.70;1.00;;;;;;7369960;19;20073;-71
2024/02/05 10:19:16;;;;;;;2.50;1.35;;;11.80;1.00;;;;;;7370044;19;20023;-69
2024/02/05 10:21:46;;;;;;;2.45;1.35;;;11.90;1.00;;;;;;7364586;19;20010;-70
2024/02/05 10:24:18;;;;;;;5.85;1.45;;;12.10;1.00;;;;;;7362421;19;20014;-69
2024/02/05 10:26:48;;;;;;;5.43;2.33;;;11.90;1.00;;;;;;7370000;19;20003;-70
2024/02/05 10:29:23;;;;;;;4.95;1.55;;;11.60;1.00;;;;;;7370118;19;20008;-70
2024/02/05 10:31:58;;;;;;;4.65;1.33;;;12.00;1.00;;;;;;7366768;19;20484;-69
2024/02/05 10:34:28;;;;;;;5.25;1.75;;;12.00;1.00;;;;;;7366500;19;20092;-69
2024/02/05 10:37:08;;;;;;;2.33;1.25;;;12.00;1.00;;;;;;7368295;19;20213;-70
2024/02/05 10:39:38;;;;;;;2.78;1.20;;;12.10;1.00;;;;;;7368501;19;20341;-70
2024/02/05 10:42:10;;;;;;;4.38;1.40;;;12.20;1.00;;;;;;7367887;19;20704;-69
2024/02/05 10:44:43;;;;;;;5.38;1.10;;;12.10;1.00;;;;;;7365658;19;23482;-71
2024/02/05 10:47:16;;;;;;;5.10;1.30;;;12.00;1.00;;;;;;7368862;19;20011;-70
2024/02/05 10:49:47;;;;;;;4.65;1.42;;;12.00;1.00;;;;;;7369567;19;20078;-71
2024/02/05 10:52:19;;;;;;;6.15;1.48;;;12.00;1.00;;;;;;7363811;19;20764;-70
2024/02/05 10:54:51;;;;;;;5.88;1.60;;;11.90;1.00;;;;;;7366491;19;20017;-69
2024/02/05 10:57:23;;;;;;;3.70;1.40;;;11.90;1.00;;;;;;7370150;19;20002;-68
2024/02/05 10:59:55;;;;;;;7.18;1.15;;;11.90;1.00;;;;;;7369641;19;20011;-70
2024/02/05 11:02:28;;;;;;;4.90;1.30;;;12.00;1.00;;;;;;7362817;19;20047;-70
2024/02/05 11:05:00;;;;;;;5.22;1.40;;;11.90;1.00;;;;;;7365632;19;20006;-69
2024/02/05 11:07:36;;;;;;;4.50;1.63;;;11.90;1.00;;;;;;7369929;19;20053;-69
2024/02/05 11:10:08;;;;;;;4.53;1.17;;;11.70;1.00;;;;;;7367913;19;20609;-71
2024/02/05 11:12:42;;;;;;;7.18;1.60;;;11.40;1.00;;;;;;7367661;19;20010;-70
2024/02/05 11:15:22;;;;;;;;;;;11.50;1.00;;;;;;7364640;19;20027;-71
2024/02/05 11:17:55;;;;;;;7.30;2.08;;;11.80;1.00;;;;;;7367107;19;19922;-70
2024/02/05 11:20:28;;;;;;;6.78;2.10;;;12.00;1.00;;;;;;7366651;19;20484;-70
2024/02/05 11:22:59;;;;;;;4.53;1.30;;;12.00;1.00;;;;;;7366809;19;20064;-70
2024/02/05 11:25:31;;;;;;;5.38;1.50;;;11.70;1.00;;;;;;7364511;19;20086;-68
2024/02/05 11:28:02;;;;;;;7.10;1.88;;;11.80;1.00;;;;;;7368164;19;20022;-71
2024/02/05 11:30:36;;;;;;;8.57;1.70;;;12.00;1.00;;;;;;7367269;19;20011;-70
2024/02/05 11:33:07;;;;;;;6.95;1.67;;;12.10;1.00;;;;;;7366972;19;20014;-70
2024/02/05 11:35:37;;;;;;;6.40;1.70;;;11.90;1.00;;;;;;7364004;19;20009;-70
2024/02/05 11:38:08;;;;;;;6.28;1.40;;;12.00;1.00;;;;;;7367234;19;20089;-70
2024/02/05 11:40:43;;;;;;;4.90;1.30;;;12.20;1.00;;;;;;7366677;19;20032;-70
2024/02/05 11:43:13;;;;;;;9.30;1.73;;;12.10;1.00;;;;;;7364792;19;20050;-71
2024/02/05 11:45:45;;;;;;;6.97;1.55;;;12.10;1.00;;;;;;7364580;19;20018;-70
2024/02/05 11:48:16;;;;;;;6.82;1.60;;;12.10;1.00;;;;;;7366842;19;20015;-70
2024/02/05 11:50:46;;;;;;;4.43;1.75;;;12.40;1.00;;;;;;7367238;19;20014;-70
2024/02/05 11:53:17;;;;;;;4.47;1.70;;;11.70;1.00;;;;;;7366237;19;20503;-70
2024/02/05 11:55:47;;;;;;;5.28;1.77;;;12.00;1.00;;;;;;7364287;19;20011;-71
2024/02/05 11:58:17;;;;;;;8.10;1.98;;;12.30;1.00;;;;;;7368625;19;20035;-69
2024/02/05 12:00:49;;;;;;;6.38;1.77;;;12.10;1.00;;;;;;7367358;19;20490;-70
2024/02/05 12:03:20;;;;;;;6.85;1.88;;;12.00;1.00;;;;;;7366281;19;20015;-70
2024/02/05 12:05:52;;;;;;;4.78;1.67;;;12.00;1.00;;;;;;7365819;19;20014;-70
2024/02/05 12:08:22;;;;;;;5.70;1.70;;;12.00;1.00;;;;;;7366724;19;20110;-71
2024/02/05 12:10:52;;;;;;;7.18;1.90;;;12.10;1.00;;;;;;7367079;19;20026;-69
2024/02/05 12:13:22;;;;;;;7.43;2.33;;;12.40;1.00;;;;;;7363637;19;20014;-70
2024/02/05 12:15:55;;;;;;;9.00;2.58;;;12.20;1.00;;;;;;7363103;19;20462;-70
2024/02/05 12:18:25;;;;;;;9.73;2.35;;;12.10;1.00;;;;;;7365836;19;20103;-70
2024/02/05 12:21:00;;;;;;;6.95;1.98;;;12.20;1.00;;;;;;7365497;19;20425;-70
2024/02/05 12:23:30;;;;;;;10.85;2.33;;;12.20;1.00;;;;;;7362679;19;20046;-70
2024/02/05 12:26:01;;;;;;;9.38;2.22;;;12.10;1.00;;;;;;7367062;19;20018;-70
2024/02/05 12:28:32;;;;;;;7.63;2.20;;;12.10;1.00;;;;;;7365415;19;20018;-70
2024/02/05 12:31:04;;;;;;;11.85;2.35;;;12.00;1.00;;;;;;7365351;19;20014;-69
2024/02/05 12:33:34;;;;;;;8.93;2.42;;;11.70;1.00;;;;;;7363305;19;20024;-71
2024/02/05 12:36:07;;;;;;;7.10;2.55;;;11.90;1.00;;;;;;7364463;19;20142;-69
2024/02/05 12:38:38;;;;;;;7.32;2.28;;;11.90;1.00;;;;;;7366332;19;20010;-70
2024/02/05 12:41:08;;;;;;;9.65;2.30;;;11.80;1.00;;;;;;7366612;19;20098;-70
2024/02/05 12:43:38;;;;;;;6.20;2.00;;;12.00;1.00;;;;;;7361832;19;20067;-70
2024/02/05 12:46:11;;;;;;;9.48;2.50;;;11.90;1.00;;;;;;7368019;19;20405;-70
2024/02/05 12:48:42;;;;;;;10.15;1.98;;;12.00;1.00;;;;;;7369855;19;20006;-70
2024/02/05 12:51:12;;;;;;;9.73;2.45;;;12.10;1.00;;;;;;7367766;19;20455;-70
2024/02/05 12:53:43;;;;;;;7.57;2.05;;;12.10;1.00;;;;;;7372639;19;20031;-70
2024/02/05 12:56:14;;;;;;;11.60;2.40;;;11.90;1.00;;;;;;7372146;19;20018;-71
2024/02/05 12:58:44;;;;;;;7.53;2.50;;;12.00;1.00;;;;;;7373352;19;20014;-70
2024/02/05 13:01:17;;;;;;;8.32;2.70;;;11.80;1.00;;;;;;7372099;19;20014;-70
2024/02/05 13:03:47;;;;;;;11.25;2.08;;;11.90;1.00;;;;;;7370813;19;20018;-70
2024/02/05 13:06:24;;;;;;;10.18;2.25;;;11.70;1.00;;;;;;7369951;19;20274;-69
2024/02/05 13:08:57;;;;;;;15.25;3.00;;;11.70;1.00;;;;;;7367149;19;20050;-70
2024/02/05 13:11:30;;;;;;;10.90;2.45;;;11.80;1.00;;;;;;7370314;19;20013;-70
2024/02/05 13:14:01;;;;;;;9.02;2.17;;;11.80;1.00;;;;;;7370001;19;20007;-71
2024/02/05 13:16:33;;;;;;;9.40;2.67;;;11.50;1.00;;;;;;7369229;19;20011;-71
2024/02/05 13:19:04;;;;;;;8.68;3.08;;;11.30;1.00;;;;;;7371762;19;20090;-69
2024/02/05 13:21:34;;;;;;;9.35;2.53;;;11.30;1.00;;;;;;7370319;19;20018;-70
2024/02/05 13:24:04;;;;;;;13.32;2.65;;;11.60;1.00;;;;;;7369604;19;20363;-71
2024/02/05 13:26:34;;;;;;;6.85;1.83;;;11.70;1.00;;;;;;7369503;19;20006;-69